Latest Weather Observations for Wattamolla

IDN60801

Issued at 11:03 am EDT Monday 11 December 2017 (issued every 30 minutes, with the page automatically refreshed every 10 minutes)

About weather observations | Map of weather stations | Latest weather observations for NSW | Other Formats
Station Details ID: 066208 Name: WATTAMOLLA AWS Lat: -34.14 Lon: 151.12 Height: 44.0 m
Data from the previous 72 hours. | See also: Recent months for locations in New South Wales
Date/Time
EDT
Temp
°C
App
Temp
°C
Dew
Point
°C
Rel
Hum
%
Delta-T
°C
Wind Press
QNH
hPa
Press
MSL
hPa
Rain since
9am
mm
Dir  Spd
km/h
Gust
km/h
Spd
kts
Gust
kts
11/11:00am - - - - - NE 24 33 13 18 - - -
11/10:30am - - - - - NE 22 33 12 18 - - -
11/10:00am - - - - - NE 13 24 7 13 - - -
11/09:30am - - - - - N 17 28 9 15 - - -
11/09:00am - - - - - N 11 15 6 8 - - -
11/08:30am - - - - - N 17 24 9 13 - - -
11/08:00am - - - - - N 17 24 9 13 - - -
11/07:30am - - - - - N 17 24 9 13 - - -
11/07:00am - - - - - NNW 11 13 6 7 - - -
11/06:30am - - - - - NNW 15 17 8 9 - - -
11/06:00am - - - - - NNW 17 19 9 10 - - -
11/05:30am - - - - - NNW 15 17 8 9 - - -
11/05:00am - - - - - NNW 13 17 7 9 - - -
11/04:30am - - - - - NNW 13 13 7 7 - - -
11/04:00am - - - - - NW 11 13 6 7 - - -
11/03:30am - - - - - NNW 11 13 6 7 - - -
11/03:00am - - - - - NNW 13 15 7 8 - - -
11/02:30am - - - - - NNW 15 15 8 8 - - -
11/02:00am - - - - - NNW 13 15 7 8 - - -
11/01:30am - - - - - NNW 11 13 6 7 - - -
11/01:00am - - - - - NNW 11 15 6 8 - - -
11/12:30am - - - - - NNW 11 13 6 7 - - -
11/12:00am - - - - - NNW 11 13 6 7 - - -
 
Date/Time
EDT
Temp
°C
App
Temp
°C
Dew
Point
°C
Rel
Hum
%
Delta-T
°C
Wind Press
QNH
hPa
Press
MSL
hPa
Rain since
9am
mm
Dir  Spd
km/h
Gust
km/h
Spd
kts
Gust
kts
10/11:30pm - - - - - N 15 20 8 11 - - -
10/11:00pm - - - - - N 15 19 8 10 - - -
10/10:30pm - - - - - N 13 20 7 11 - - -
10/10:00pm - - - - - N 19 26 10 14 - - -
10/09:30pm - - - - - NNE 15 26 8 14 - - -
10/09:00pm - - - - - NNE 20 30 11 16 - - -
10/08:30pm - - - - - NNE 19 30 10 16 - - -
10/08:00pm - - - - - NNE 20 33 11 18 - - -
10/07:30pm - - - - - NNE 26 37 14 20 - - -
10/07:00pm - - - - - NNE 24 37 13 20 - - -
10/06:30pm - - - - - NE 30 43 16 23 - - -
10/06:00pm - - - - - NNE 28 41 15 22 - - -
10/05:30pm - - - - - NE 26 37 14 20 - - -
10/05:00pm - - - - - NE 26 37 14 20 - - -
10/04:30pm - - - - - NE 24 37 13 20 - - -
10/04:00pm - - - - - NE 26 37 14 20 - - -
10/03:30pm - - - - - NE 26 39 14 21 - - -
10/03:00pm - - - - - NE 22 33 12 18 - - -
10/02:30pm - - - - - NE 24 33 13 18 - - -
10/02:00pm - - - - - NE 24 33 13 18 - - -
10/01:30pm - - - - - NE 24 33 13 18 - - -
10/01:00pm - - - - - NE 24 33 13 18 - - -
10/12:30pm - - - - - NE 24 32 13 17 - - -
10/12:00pm - - - - - NE 24 32 13 17 - - -
10/11:30am - - - - - ENE 20 30 11 16 - - -
10/11:00am - - - - - ENE 19 26 10 14 - - -
10/10:30am - - - - - ENE 19 24 10 13 - - -
10/10:00am - - - - - ENE 17 22 9 12 - - -
10/09:30am - - - - - ENE 13 17 7 9 - - -
10/09:00am - - - - - ENE 13 17 7 9 - - -
10/08:30am - - - - - ENE 11 17 6 9 - - -
10/08:00am - - - - - CALM 0 11 0 6 - - -
10/07:30am - - - - - W 2 6 1 3 - - -
10/07:00am - - - - - NW 9 9 5 5 - - -
10/06:30am - - - - - NW 11 11 6 6 - - -
10/06:00am - - - - - WNW 9 9 5 5 - - -
10/05:30am - - - - - WSW 9 11 5 6 - - -
10/05:00am - - - - - SW 9 11 5 6 - - -
10/04:30am - - - - - WSW 9 11 5 6 - - -
10/04:00am - - - - - SW 9 11 5 6 - - -
10/03:30am - - - - - SW 7 9 4 5 - - -
10/03:00am - - - - - WNW 6 7 3 4 - - -
10/02:30am - - - - - NW 4 6 2 3 - - -
10/02:00am - - - - - NW 7 9 4 5 - - -
10/01:30am - - - - - NW 9 11 5 6 - - -
10/01:00am - - - - - NNW 9 11 5 6 - - -
10/12:30am - - - - - NW 11 11 6 6 - - -
10/12:00am - - - - - NW 13 13 7 7 - - -
 
Date/Time
EDT
Temp
°C
App
Temp
°C
Dew
Point
°C
Rel
Hum
%
Delta-T
°C
Wind Press
QNH
hPa
Press
MSL
hPa
Rain since
9am
mm
Dir  Spd
km/h
Gust
km/h
Spd
kts
Gust
kts
09/11:30pm - - - - - NW 13 15 7 8 - - -
09/11:00pm - - - - - NNW 11 15 6 8 - - -
09/10:30pm - - - - - N 13 15 7 8 - - -
09/10:00pm - - - - - NNE 13 17 7 9 - - -
09/09:30pm - - - - - N 13 15 7 8 - - -
09/09:00pm - - - - - NNE 13 17 7 9 - - -
09/08:30pm - - - - - NNE 13 19 7 10 - - -
09/08:00pm - - - - - NNE 13 20 7 11 - - -
09/07:30pm - - - - - NE 19 26 10 14 - - -
09/07:00pm - - - - - NE 17 28 9 15 - - -
09/06:30pm - - - - - NE 22 32 12 17 - - -
09/06:00pm - - - - - NE 24 33 13 18 - - -
09/05:30pm - - - - - NE 22 32 12 17 - - -
09/05:00pm - - - - - NE 20 32 11 17 - - -
09/04:30pm - - - - - NE 20 33 11 18 - - -
09/04:00pm - - - - - NE 24 32 13 17 - - -
09/03:30pm - - - - - NE 20 30 11 16 - - -
09/03:00pm - - - - - ENE 20 30 11 16 - - -
09/02:30pm - - - - - ENE 19 26 10 14 - - -
09/02:00pm - - - - - ESE 11 19 6 10 - - -
09/01:30pm - - - - - SE 11 13 6 7 - - -
09/01:00pm - - - - - SSE 13 17 7 9 - - -
09/12:30pm - - - - - S 15 19 8 10 - - -
09/12:00pm - - - - - S 15 20 8 11 - - -
09/11:30am - - - - - S 13 20 7 11 - - -
09/11:00am - - - - - S 15 20 8 11 - - -
09/10:30am - - - - - S 20 24 11 13 - - -
09/10:00am - - - - - S 24 28 13 15 - - -
09/09:30am - - - - - S 26 33 14 18 - - -
09/09:00am - - - - - S 28 32 15 17 - - -
09/08:30am - - - - - S 20 30 11 16 - - -
09/08:00am - - - - - S 20 26 11 14 - - -
09/07:30am - - - - - S 19 24 10 13 - - -
09/07:00am - - - - - SSE 15 20 8 11 - - -
09/06:30am - - - - - SSE 24 30 13 16 - - -
09/06:00am - - - - - SSE 30 35 16 19 - - -
09/05:30am - - - - - SSE 24 32 13 17 - - -
09/05:00am - - - - - SSE 28 35 15 19 - - -
09/04:30am - - - - - SSE 28 37 15 20 - - -
09/04:00am - - - - - SSE 30 41 16 22 - - -
09/03:30am - - - - - SSE 35 46 19 25 - - -
09/03:00am - - - - - SSE 35 50 19 27 - - -
09/02:30am - - - - - SSE 33 46 18 25 - - -
09/02:00am - - - - - SSE 33 43 18 23 - - -
09/01:30am - - - - - SSE 33 46 18 25 - - -
09/01:00am - - - - - SSE 37 48 20 26 - - -
09/12:30am - - - - - SSE 37 48 20 26 - - -
09/12:00am - - - - - SSE 37 48 20 26 - - -
 
Date/Time
EDT
Temp
°C
App
Temp
°C
Dew
Point
°C
Rel
Hum
%
Delta-T
°C
Wind Press
QNH
hPa
Press
MSL
hPa
Rain since
9am
mm
Dir  Spd
km/h
Gust
km/h
Spd
kts
Gust
kts
08/11:30pm - - - - - SSE 37 44 20 24 - - -
08/11:00pm - - - - - SSE 37 46 20 25 - - -
08/10:30pm - - - - - SSE 39 54 21 29 - - -
08/10:00pm - - - - - SSE 41 50 22 27 - - -
08/09:30pm - - - - - SSE 37 48 20 26 - - -
08/09:00pm - - - - - SSE 41 48 22 26 - - -
08/08:30pm - - - - - SSE 43 50 23 27 - - -
08/08:00pm - - - - - SSE 41 50 22 27 - - -
08/07:30pm - - - - - SSE 39 52 21 28 - - -
08/07:15pm - - - - - SSE 37 56 20 30 - - -
08/07:00pm - - - - - SSE 43 56 23 30 - - -
08/06:30pm - - - - - SSE 43 59 23 32 - - -
08/06:00pm - - - - - SSE 44 57 24 31 - - -
08/05:30pm - - - - - SSE 50 63 27 34 - - -
08/05:07pm - - - - - SSE 43 67 23 36 - - -
08/05:00pm - - - - - SSE 48 65 26 35 - - -
08/04:49pm - - - - - SSE 50 69 27 37 - - -
08/04:30pm - - - - - SSE 48 63 26 34 - - -
08/04:00pm - - - - - SSE 50 59 27 32 - - -
08/03:30pm - - - - - SSE 44 56 24 30 - - -
08/03:00pm - - - - - SSE 41 52 22 28 - - -
08/02:30pm - - - - - SSE 41 52 22 28 - - -
08/02:00pm - - - - - SSE 37 44 20 24 - - -
08/01:40pm - - - - - SSE 28 39 15 21 - - -
08/01:30pm - - - - - S 15 20 8 11 - - -
08/01:00pm - - - - - SSE 28 32 15 17 - - -
08/12:30pm - - - - - SSE 22 26 12 14 - - -
08/12:00pm - - - - - ESE 11 15 6 8 - - -
08/11:30am - - - - - SE 13 24 7 13 - - -

Other Formats:

Comma delimited format used in spreadsheet applications
http://www.bom.gov.au/fwo/IDN60801/IDN60801.95752.axf

JavaScript Object Notation format (JSON) in row-major order
http://www.bom.gov.au/fwo/IDN60801/IDN60801.95752.json